createdAt,value
2023-03-31T00:02:30.088Z,2.78
2023-03-31T00:05:18.307Z,2.67
2023-03-31T00:08:04.685Z,2.53
2023-03-31T00:10:50.616Z,2.55
2023-03-31T00:13:37.004Z,2.58
2023-03-31T00:16:23.452Z,3.00
2023-03-31T00:19:27.818Z,3.65
2023-03-31T00:22:15.079Z,3.13
2023-03-31T00:25:01.018Z,2.95
2023-03-31T00:27:47.145Z,5.72
2023-03-31T00:30:33.269Z,4.68
2023-03-31T00:33:19.375Z,3.42
2023-03-31T00:36:10.020Z,3.10
2023-03-31T00:39:02.610Z,3.05
2023-03-31T00:41:49.577Z,3.50
2023-03-31T00:44:37.821Z,5.35
2023-03-31T00:47:23.658Z,5.00
2023-03-31T00:50:18.895Z,4.72
2023-03-31T00:53:14.685Z,5.00
2023-03-31T00:56:07.909Z,4.70
2023-03-31T00:58:59.786Z,2.55
2023-03-31T01:01:47.025Z,2.67
2023-03-31T01:04:39.833Z,4.55
2023-03-31T01:07:38.117Z,3.92
2023-03-31T01:10:23.927Z,4.57
2023-03-31T01:13:15.061Z,4.55
2023-03-31T01:16:01.369Z,11.35
2023-03-31T01:18:49.814Z,10.82
2023-03-31T01:21:53.829Z,4.88
2023-03-31T01:25:02.338Z,3.50
2023-03-31T01:28:19.764Z,3.70
2023-03-31T01:31:44.265Z,3.70
2023-03-31T01:35:09.629Z,3.85
2023-03-31T01:38:39.415Z,3.92
2023-03-31T01:41:40.765Z,4.30
2023-03-31T01:44:29.777Z,3.80
2023-03-31T01:47:44.590Z,3.78
2023-03-31T01:50:40.089Z,3.80
2023-03-31T01:53:41.804Z,3.60
2023-03-31T01:56:35.189Z,3.72
2023-03-31T01:59:41.316Z,3.50
2023-03-31T02:02:31.662Z,3.42
2023-03-31T02:05:21.314Z,3.65
2023-03-31T02:08:23.291Z,4.07
2023-03-31T02:11:10.403Z,3.50
2023-03-31T02:13:56.880Z,3.28
2023-03-31T02:16:47.446Z,3.67
2023-03-31T02:19:39.738Z,3.67
2023-03-31T02:22:27.060Z,3.70
2023-03-31T02:25:15.906Z,3.85
2023-03-31T02:28:15.755Z,3.80
2023-03-31T02:31:06.882Z,4.28
2023-03-31T02:33:53.291Z,4.35
2023-03-31T02:36:41.309Z,3.47
2023-03-31T02:39:31.198Z,3.17
2023-03-31T02:42:20.137Z,3.38
2023-03-31T02:45:54.537Z,3.22
2023-03-31T02:48:50.534Z,2.75
2023-03-31T02:51:42.195Z,2.80
2023-03-31T02:55:31.868Z,3.05
2023-03-31T02:58:44.950Z,3.20
2023-03-31T03:02:58.821Z,3.08
2023-03-31T03:05:58.967Z,3.72
2023-03-31T03:09:37.778Z,3.33
2023-03-31T03:12:45.547Z,3.72
2023-03-31T03:15:37.403Z,3.03
2023-03-31T03:18:23.320Z,3.65
2023-03-31T03:21:09.414Z,3.40
2023-03-31T03:23:55.617Z,3.22
2023-03-31T03:26:41.627Z,3.65
2023-03-31T03:29:27.774Z,3.10
2023-03-31T03:32:13.795Z,3.15
2023-03-31T03:35:03.520Z,3.38
2023-03-31T03:37:49.219Z,3.70
2023-03-31T03:40:35.276Z,3.63
2023-03-31T03:43:21.064Z,2.88
2023-03-31T03:46:07.062Z,3.13
2023-03-31T03:48:53.499Z,3.03
2023-03-31T03:51:39.150Z,3.17
2023-03-31T03:54:26.368Z,3.25
2023-03-31T03:57:15.619Z,3.00
2023-03-31T04:00:01.603Z,3.80
2023-03-31T04:03:44.257Z,4.70
2023-03-31T04:06:30.322Z,3.63
2023-03-31T04:09:16.304Z,4.43
2023-03-31T04:12:18.256Z,6.20
2023-03-31T04:15:06.983Z,4.50
2023-03-31T04:17:54.868Z,5.75
2023-03-31T04:20:40.861Z,5.35
2023-03-31T04:23:26.722Z,5.55
2023-03-31T04:26:14.083Z,4.72
2023-03-31T04:29:02.707Z,6.13
2023-03-31T04:32:04.663Z,6.40
2023-03-31T04:34:50.823Z,6.82
2023-03-31T04:37:38.946Z,9.43
2023-03-31T04:40:25.601Z,8.82
2023-03-31T04:43:11.424Z,6.82
2023-03-31T04:45:57.248Z,6.20
2023-03-31T04:48:42.863Z,6.20
2023-03-31T04:51:29.345Z,8.77
2023-03-31T04:54:15.539Z,9.45
2023-03-31T04:57:01.661Z,7.60
2023-03-31T04:59:47.195Z,7.60
2023-03-31T05:02:32.803Z,7.07
2023-03-31T05:05:19.122Z,8.35
2023-03-31T05:08:05.534Z,7.88
2023-03-31T05:10:51.635Z,9.88
2023-03-31T05:13:37.978Z,6.57
2023-03-31T05:16:29.378Z,5.75
2023-03-31T05:19:15.134Z,7.20
2023-03-31T05:22:00.920Z,6.93
2023-03-31T05:24:47.362Z,5.28
2023-03-31T05:27:33.289Z,6.10
2023-03-31T05:30:18.914Z,5.13
2023-03-31T05:33:04.622Z,5.05
2023-03-31T05:35:50.575Z,5.10
2023-03-31T05:38:36.565Z,5.28
2023-03-31T05:41:22.501Z,5.75
2023-03-31T05:44:08.620Z,6.65
2023-03-31T05:46:54.788Z,11.10
2023-03-31T05:49:42.121Z,10.45
2023-03-31T05:52:34.261Z,10.30
2023-03-31T05:55:21.154Z,11.50
2023-03-31T05:58:09.188Z,10.52
2023-03-31T06:01:06.707Z,11.13
2023-03-31T06:03:53.446Z,11.27
2023-03-31T06:06:39.654Z,12.18
2023-03-31T06:09:26.341Z,9.27
2023-03-31T06:12:12.080Z,7.78
2023-03-31T06:14:58.699Z,8.13
2023-03-31T06:17:44.813Z,8.45
2023-03-31T06:20:30.677Z,8.80
2023-03-31T06:23:16.697Z,9.20
2023-03-31T06:26:06.517Z,8.43
2023-03-31T06:28:52.523Z,9.60
2023-03-31T06:31:38.411Z,9.35
2023-03-31T06:34:24.224Z,9.93
2023-03-31T06:37:10.053Z,10.07
2023-03-31T06:39:58.012Z,10.02
2023-03-31T06:42:45.322Z,12.40
2023-03-31T06:45:31.166Z,11.65
2023-03-31T06:48:16.924Z,11.57
2023-03-31T06:51:04.910Z,12.10
2023-03-31T06:53:51.345Z,14.30
2023-03-31T06:56:37.085Z,18.30
2023-03-31T06:59:22.819Z,18.55
2023-03-31T07:02:10.353Z,17.33
2023-03-31T07:04:56.071Z,18.02
2023-03-31T07:07:43.281Z,18.58
2023-03-31T07:10:31.431Z,17.92
2023-03-31T07:13:18.046Z,19.00
2023-03-31T07:16:07.250Z,17.77
2023-03-31T07:18:59.658Z,18.45
2023-03-31T07:21:45.772Z,18.42
2023-03-31T07:24:31.773Z,19.17
2023-03-31T07:27:17.329Z,19.88
2023-03-31T07:30:17.224Z,20.88
2023-03-31T07:33:03.036Z,22.23
2023-03-31T07:35:56.838Z,24.27
2023-03-31T07:38:57.631Z,24.15
2023-03-31T07:41:43.473Z,22.05
2023-03-31T07:44:29.415Z,20.13
2023-03-31T07:47:15.036Z,11.65
2023-03-31T07:50:00.876Z,9.05
2023-03-31T07:52:47.501Z,9.07
2023-03-31T07:55:33.545Z,4.07
2023-03-31T07:58:19.254Z,5.10
2023-03-31T08:01:36.957Z,4.30
2023-03-31T08:04:30.857Z,2.67
2023-03-31T08:07:16.909Z,3.70
2023-03-31T08:10:03.976Z,3.58
2023-03-31T08:12:55.821Z,2.85
2023-03-31T08:20:12.962Z,3.33
2023-03-31T08:23:09.362Z,3.72
2023-03-31T08:25:54.959Z,3.08
2023-03-31T08:33:21.755Z,3.67
2023-03-31T08:36:10.839Z,3.22
2023-03-31T08:38:56.744Z,3.90
2023-03-31T08:41:48.253Z,3.70
2023-03-31T08:44:51.440Z,3.60
2023-03-31T08:47:38.166Z,3.90
2023-03-31T08:50:27.695Z,3.65
2023-03-31T08:53:37.836Z,3.70
2023-03-31T08:56:24.746Z,3.67
2023-03-31T08:59:32.637Z,6.53
2023-03-31T09:02:48.947Z,3.80
2023-03-31T09:05:59.438Z,3.90
2023-03-31T09:08:45.819Z,3.38
2023-03-31T09:11:54.155Z,4.00
2023-03-31T09:15:01.259Z,5.57
2023-03-31T09:17:50.039Z,8.35
2023-03-31T09:20:38.489Z,4.50
2023-03-31T09:23:44.807Z,9.75
2023-03-31T09:26:35.074Z,5.43
2023-03-31T09:29:53.922Z,4.93
2023-03-31T09:32:40.073Z,7.13
2023-03-31T09:35:26.738Z,5.10
2023-03-31T09:38:14.785Z,2.40
2023-03-31T09:41:02.118Z,2.20
2023-03-31T09:43:49.565Z,2.58
2023-03-31T09:46:36.858Z,2.65
2023-03-31T09:49:26.700Z,3.22
2023-03-31T09:52:32.276Z,2.95
2023-03-31T09:55:39.552Z,2.92
2023-03-31T09:58:27.250Z,2.80
2023-03-31T10:01:14.571Z,3.75
2023-03-31T10:04:00.641Z,4.63
2023-03-31T10:06:47.581Z,3.47
2023-03-31T10:09:34.408Z,3.20
2023-03-31T10:12:24.500Z,2.92
2023-03-31T10:15:20.157Z,4.38
2023-03-31T10:18:06.289Z,2.70
2023-03-31T10:20:53.431Z,4.55
2023-03-31T10:23:39.438Z,3.65
2023-03-31T10:26:27.596Z,3.70
2023-03-31T10:29:14.009Z,2.47
2023-03-31T10:32:12.218Z,2.30
2023-03-31T10:35:04.264Z,2.90
2023-03-31T10:37:51.373Z,3.55
2023-03-31T10:40:37.494Z,3.00
2023-03-31T10:43:54.153Z,4.07
2023-03-31T10:46:51.342Z,6.45
2023-03-31T10:49:40.092Z,4.28
2023-03-31T10:52:27.502Z,4.07
2023-03-31T10:55:14.941Z,3.05
2023-03-31T10:58:27.468Z,3.15
2023-03-31T11:01:45.661Z,2.90
2023-03-31T11:04:52.766Z,11.95
2023-03-31T11:08:15.800Z,5.47
2023-03-31T11:11:43.895Z,3.00
2023-03-31T11:15:10.959Z,3.92
2023-03-31T11:18:34.317Z,4.88
2023-03-31T11:21:32.215Z,4.80
2023-03-31T11:24:48.896Z,5.65
2023-03-31T11:28:08.918Z,5.20
2023-03-31T11:31:05.993Z,3.85
2023-03-31T11:34:10.752Z,2.40
2023-03-31T11:37:08.568Z,2.78
2023-03-31T11:40:01.159Z,2.40
2023-03-31T11:42:54.226Z,1.90
2023-03-31T11:46:13.333Z,2.60
2023-03-31T11:49:02.888Z,2.53
2023-03-31T11:52:01.405Z,2.10
2023-03-31T11:54:55.696Z,3.50
2023-03-31T11:57:59.534Z,2.97
2023-03-31T12:03:52.179Z,3.88
2023-03-31T12:06:42.645Z,5.03
2023-03-31T12:09:55.872Z,4.45
2023-03-31T12:13:10.192Z,3.55
2023-03-31T12:16:04.907Z,3.13
2023-03-31T12:19:06.091Z,2.70
2023-03-31T12:22:00.957Z,2.88
2023-03-31T12:24:47.111Z,3.15
2023-03-31T12:27:40.191Z,4.50
2023-03-31T12:30:39.394Z,3.95
2023-03-31T12:33:29.011Z,3.03
2023-03-31T12:36:40.454Z,2.95
2023-03-31T12:39:53.725Z,3.55
2023-03-31T12:42:50.910Z,2.83
2023-03-31T12:45:42.482Z,2.58
2023-03-31T12:48:34.941Z,2.53
2023-03-31T12:51:54.579Z,2.00
2023-03-31T12:55:05.283Z,2.00
2023-03-31T12:57:51.194Z,1.73
2023-03-31T13:00:36.837Z,1.90
2023-03-31T13:03:43.478Z,2.05
2023-03-31T13:06:29.066Z,2.05
2023-03-31T13:09:14.820Z,2.30
2023-03-31T13:12:10.095Z,2.72
2023-03-31T13:18:19.564Z,1.95
2023-03-31T13:21:06.505Z,2.03
2023-03-31T13:23:53.812Z,2.03
2023-03-31T13:26:49.520Z,2.53
2023-03-31T13:29:44.423Z,1.90
2023-03-31T13:32:30.512Z,2.35
2023-03-31T13:35:21.589Z,2.22
2023-03-31T13:38:35.510Z,6.22
2023-03-31T13:44:39.552Z,3.35
2023-03-31T13:47:31.490Z,4.38
2023-03-31T13:50:28.770Z,2.92
2023-03-31T13:53:20.580Z,2.45
2023-03-31T13:56:16.666Z,3.60
2023-03-31T13:59:34.028Z,3.17
2023-03-31T14:02:40.059Z,2.83
2023-03-31T14:06:00.217Z,4.70
2023-03-31T14:08:56.581Z,2.63
2023-03-31T14:11:42.573Z,3.05
2023-03-31T14:14:30.225Z,3.05
2023-03-31T14:17:16.366Z,3.83
2023-03-31T14:20:19.876Z,3.20
2023-03-31T14:23:45.553Z,3.00
2023-03-31T14:26:42.390Z,3.08
2023-03-31T14:29:51.673Z,2.78
2023-03-31T14:32:53.205Z,2.88
2023-03-31T14:35:44.823Z,3.13
2023-03-31T14:38:33.844Z,3.10
2023-03-31T14:41:21.204Z,2.67
2023-03-31T14:44:16.158Z,3.05
2023-03-31T14:47:02.372Z,2.70
2023-03-31T14:49:48.704Z,2.40
2023-03-31T14:52:35.898Z,2.67
2023-03-31T14:55:35.566Z,3.05
2023-03-31T14:58:32.448Z,3.90
2023-03-31T15:01:46.581Z,3.60
2023-03-31T15:04:46.482Z,3.33
2023-03-31T15:07:32.292Z,2.88
2023-03-31T15:10:21.840Z,3.90
2023-03-31T15:13:21.006Z,3.70
2023-03-31T15:16:28.978Z,2.80
2023-03-31T15:19:27.262Z,4.47
2023-03-31T15:22:18.826Z,7.40
2023-03-31T15:25:05.050Z,4.03
2023-03-31T15:27:56.160Z,4.50
2023-03-31T15:30:42.547Z,4.40
2023-03-31T15:33:34.052Z,3.72
2023-03-31T15:36:21.284Z,3.05
2023-03-31T15:39:07.260Z,4.50
2023-03-31T15:41:53.712Z,3.35
2023-03-31T15:44:44.909Z,3.75
2023-03-31T15:47:33.143Z,5.45
2023-03-31T15:50:22.191Z,4.60
2023-03-31T15:53:37.827Z,5.38
2023-03-31T15:56:43.736Z,4.45
2023-03-31T15:59:41.521Z,6.07
2023-03-31T16:02:47.112Z,4.87
2023-03-31T16:05:54.437Z,3.53
2023-03-31T16:08:44.896Z,2.65
2023-03-31T16:11:40.464Z,2.95
2023-03-31T16:14:36.068Z,3.17
2023-03-31T16:17:40.448Z,3.38
2023-03-31T16:20:38.562Z,3.70
2023-03-31T16:23:35.826Z,3.33
2023-03-31T16:26:23.651Z,2.60
2023-03-31T16:29:09.286Z,3.65
2023-03-31T16:32:18.438Z,3.17
2023-03-31T16:35:06.069Z,3.97
2023-03-31T16:37:55.337Z,3.42
2023-03-31T16:40:46.119Z,3.88
2023-03-31T16:43:31.984Z,3.45
2023-03-31T16:46:17.989Z,3.38
2023-03-31T16:49:03.983Z,4.53
2023-03-31T16:51:49.611Z,4.63
2023-03-31T16:54:35.741Z,6.95
2023-03-31T16:57:21.534Z,5.93
2023-03-31T17:00:07.854Z,7.15
2023-03-31T17:02:53.823Z,8.02
2023-03-31T17:05:42.263Z,9.02
2023-03-31T17:08:28.228Z,5.75
2023-03-31T17:11:14.443Z,6.80
2023-03-31T17:14:00.532Z,4.47
2023-03-31T17:16:48.577Z,4.80
2023-03-31T17:19:34.830Z,5.00
2023-03-31T17:22:20.947Z,4.75
2023-03-31T17:25:08.229Z,11.38
2023-03-31T17:27:55.951Z,4.53
2023-03-31T17:30:44.286Z,3.83
2023-03-31T17:33:30.196Z,4.53
2023-03-31T17:36:16.740Z,3.72
2023-03-31T17:39:05.115Z,2.90
2023-03-31T17:41:50.905Z,2.85
2023-03-31T17:44:37.045Z,2.70
2023-03-31T17:47:22.994Z,3.97
2023-03-31T17:50:10.033Z,2.80
2023-03-31T17:52:55.777Z,2.80
2023-03-31T17:55:41.387Z,3.30
2023-03-31T17:58:28.269Z,3.33
2023-03-31T18:01:14.505Z,3.05
2023-03-31T18:04:00.385Z,2.50
2023-03-31T18:06:48.609Z,3.30
2023-03-31T18:09:34.839Z,3.30
2023-03-31T18:12:20.659Z,3.20
2023-03-31T18:15:07.281Z,3.40
2023-03-31T18:17:53.517Z,5.28
2023-03-31T18:20:40.043Z,5.20
2023-03-31T18:23:26.147Z,4.32
2023-03-31T18:26:13.217Z,4.15
2023-03-31T18:28:59.257Z,4.70
2023-03-31T18:31:45.118Z,6.60
2023-03-31T18:34:31.273Z,10.45
2023-03-31T18:37:17.162Z,10.13
2023-03-31T18:40:03.750Z,4.35
2023-03-31T18:42:49.983Z,4.60
2023-03-31T18:45:38.634Z,5.03
2023-03-31T18:48:25.200Z,5.03
2023-03-31T18:51:12.490Z,4.72
2023-03-31T18:53:58.130Z,4.90
2023-03-31T18:56:44.060Z,4.88
2023-03-31T18:59:29.720Z,4.30
2023-03-31T19:02:18.175Z,4.38
2023-03-31T19:05:04.427Z,4.13
2023-03-31T19:07:51.289Z,4.47
2023-03-31T19:10:37.019Z,4.90
2023-03-31T19:13:22.733Z,6.30
2023-03-31T19:16:09.382Z,4.80
2023-03-31T19:18:55.167Z,4.78
2023-03-31T19:21:41.874Z,4.45
2023-03-31T19:24:27.953Z,4.40
2023-03-31T19:27:14.082Z,4.10
2023-03-31T19:30:00.044Z,4.15
2023-03-31T19:32:47.585Z,3.38
2023-03-31T19:35:33.626Z,3.95
2023-03-31T19:38:25.535Z,5.00
2023-03-31T19:41:11.445Z,3.40
2023-03-31T19:43:57.173Z,3.35
2023-03-31T19:46:43.134Z,3.03
2023-03-31T19:49:28.883Z,3.25
2023-03-31T19:52:14.796Z,2.85
2023-03-31T19:55:00.948Z,2.70
2023-03-31T19:57:47.203Z,2.58
2023-03-31T20:00:33.099Z,2.65
2023-03-31T20:03:19.842Z,3.30
2023-03-31T20:06:17.452Z,3.53
2023-03-31T20:09:06.387Z,3.42
2023-03-31T20:11:56.653Z,3.30
2023-03-31T20:14:42.589Z,3.50
2023-03-31T20:17:29.606Z,3.53
2023-03-31T20:20:17.376Z,3.65
2023-03-31T20:23:05.154Z,3.47
2023-03-31T20:25:51.758Z,3.03
2023-03-31T20:28:38.542Z,3.30
2023-03-31T20:31:29.979Z,3.65
2023-03-31T20:34:22.370Z,3.63
2023-03-31T20:37:10.626Z,3.90
2023-03-31T20:39:56.663Z,3.83
2023-03-31T20:42:43.366Z,3.55
2023-03-31T20:45:29.448Z,3.90
2023-03-31T20:48:15.791Z,5.10
2023-03-31T20:51:02.505Z,3.30
2023-03-31T20:53:50.424Z,3.00
2023-03-31T20:56:38.419Z,3.22
2023-03-31T20:59:24.509Z,4.00
2023-03-31T21:02:12.470Z,3.72
2023-03-31T21:04:58.290Z,3.00
2023-03-31T21:07:43.978Z,2.60
2023-03-31T21:10:29.630Z,3.13
2023-03-31T21:13:16.514Z,3.10
2023-03-31T21:16:04.491Z,3.45
2023-03-31T21:18:58.703Z,3.45
2023-03-31T21:21:44.607Z,5.38
2023-03-31T21:24:30.545Z,4.30
2023-03-31T21:27:16.592Z,3.63
2023-03-31T21:30:02.669Z,4.55
2023-03-31T21:32:48.539Z,4.88
2023-03-31T21:35:35.082Z,5.20
2023-03-31T21:38:21.486Z,6.15
2023-03-31T21:41:12.876Z,5.88
2023-03-31T21:44:01.735Z,6.22
2023-03-31T21:46:48.351Z,6.80
2023-03-31T21:49:34.138Z,5.65
2023-03-31T21:52:19.799Z,5.82
2023-03-31T21:55:05.669Z,4.88
2023-03-31T21:57:51.597Z,4.43
2023-03-31T22:00:37.457Z,4.50
2023-03-31T22:03:27.746Z,4.22
2023-03-31T22:06:13.840Z,5.35
2023-03-31T22:08:59.481Z,5.70
2023-03-31T22:11:46.187Z,3.33
2023-03-31T22:14:31.885Z,3.75
2023-03-31T22:17:18.273Z,5.45
2023-03-31T22:20:05.182Z,4.90
2023-03-31T22:22:51.112Z,4.50
2023-03-31T22:25:36.876Z,3.97
2023-03-31T22:28:22.723Z,4.68
2023-03-31T22:31:08.850Z,4.75
2023-03-31T22:33:55.503Z,4.80
2023-03-31T22:36:41.160Z,4.85
2023-03-31T22:39:26.997Z,4.13
2023-03-31T22:42:15.286Z,4.72
2023-03-31T22:45:01.282Z,4.22
2023-03-31T22:47:47.429Z,4.55
2023-03-31T22:50:33.453Z,4.68
2023-03-31T22:53:19.175Z,3.30
2023-03-31T22:56:11.308Z,4.15
2023-03-31T22:58:57.986Z,3.70
2023-03-31T23:01:46.149Z,3.88
2023-03-31T23:04:32.221Z,3.92
2023-03-31T23:07:18.237Z,4.68
2023-03-31T23:10:04.673Z,4.25
2023-03-31T23:12:51.001Z,3.90
2023-03-31T23:15:37.079Z,3.65
2023-03-31T23:18:23.569Z,4.18
2023-03-31T23:21:09.568Z,4.53
2023-03-31T23:23:57.540Z,3.95
2023-03-31T23:26:43.324Z,4.25
2023-03-31T23:29:30.719Z,4.30
2023-03-31T23:32:16.380Z,3.90
2023-03-31T23:35:02.224Z,3.50
2023-03-31T23:37:51.842Z,3.55
2023-03-31T23:40:37.737Z,2.95
2023-03-31T23:43:25.332Z,3.40
2023-03-31T23:46:12.013Z,3.63
2023-03-31T23:48:58.111Z,3.40
2023-03-31T23:51:44.001Z,2.97
2023-03-31T23:54:29.830Z,3.20
2023-03-31T23:57:15.960Z,3.05
